Time;durP1;ratioP1;P1;durP2;ratioP2;P2;SDS_P1;SDS_P2;PMS_P1;PMS_P2;Temp;Humidity;BMP_temperature;BMP_pressure;BME280_temperature;BME280_humidity;BME280_pressure;Samples;Min_cycle;Max_cycle;Signal;HPM_P1;HPM_P2
2023/06/14 00:01:48;;;;;;;16.38;10.27;;;410.50;2355.20;;;;;;5071595;28;20028;-62
2023/06/14 00:04:16;;;;;;;14.88;10.75;;;410.50;2355.20;;;;;;5071004;28;20103;-63
2023/06/14 00:06:44;;;;;;;13.60;11.43;;;410.40;2355.20;;;;;;5071605;28;20378;-61
2023/06/14 00:09:12;;;;;;;13.32;9.55;;;410.40;2355.20;;;;;;5071261;28;20037;-60
2023/06/14 00:11:39;;;;;;;11.88;9.13;;;410.50;2355.20;;;;;;5071610;28;20443;-62
2023/06/14 00:14:05;;;;;;;11.80;9.57;;;410.50;2355.20;;;;;;5071590;28;20044;-63
2023/06/14 00:16:33;;;;;;;14.00;9.90;;;410.50;2355.20;;;;;;5071418;28;20025;-59
2023/06/14 00:18:59;;;;;;;11.07;8.60;;;410.50;2355.20;;;;;;5071118;28;20104;-59
2023/06/14 00:21:28;;;;;;;12.20;10.02;;;410.50;2355.20;;;;;;5071492;28;20048;-59
2023/06/14 00:23:54;;;;;;;12.77;9.27;;;435.20;2355.20;;;;;;5070509;28;20039;-59
2023/06/14 00:26:19;;;;;;;12.77;9.98;;;410.50;2355.20;;;;;;5071512;28;20020;-60
2023/06/14 00:28:45;;;;;;;10.75;9.50;;;410.30;2355.20;;;;;;5070855;28;20060;-63
2023/06/14 00:31:11;;;;;;;14.23;9.98;;;410.20;2355.20;;;;;;5071399;28;20078;-60
2023/06/14 00:33:36;;;;;;;12.60;9.50;;;410.30;2355.20;;;;;;5071148;28;20099;-62
2023/06/14 00:36:02;;;;;;;10.82;9.73;;;410.40;2355.20;;;;;;5070704;28;20037;-62
2023/06/14 00:38:28;;;;;;;9.80;8.75;;;410.50;2355.20;;;;;;5070967;28;20482;-59
2023/06/14 00:40:53;;;;;;;12.07;8.15;;;410.50;2355.20;;;;;;5071004;28;20024;-59
2023/06/14 00:43:19;;;;;;;11.52;9.55;;;410.50;2355.20;;;;;;5071044;28;20016;-62
2023/06/14 00:45:45;;;;;;;11.15;9.45;;;410.50;2355.20;;;;;;5071138;28;20020;-62
2023/06/14 00:48:11;;;;;;;11.65;9.00;;;410.50;2355.20;;;;;;5070528;28;20032;-61
2023/06/14 00:50:38;;;;;;;11.25;9.27;;;410.50;2355.20;;;;;;5070903;28;20029;-62
2023/06/14 00:53:04;;;;;;;11.43;9.65;;;410.50;2355.20;;;;;;5070462;28;20028;-59
2023/06/14 00:55:30;;;;;;;13.07;8.98;;;410.40;2355.20;;;;;;5070549;28;20024;-59
2023/06/14 00:57:56;;;;;;;15.90;9.85;;;410.50;2355.20;;;;;;5070636;28;20016;-59
2023/06/14 01:00:22;;;;;;;13.18;9.50;;;410.40;2355.20;;;;;;5070649;28;20032;-59
2023/06/14 01:02:49;;;;;;;11.85;9.75;;;410.30;2355.20;;;;;;5070962;28;20028;-63
2023/06/14 01:05:16;;;;;;;12.27;8.40;;;410.20;2355.20;;;;;;5070131;28;20466;-61
2023/06/14 01:08:01;;;;;;;9.80;8.77;;;410.20;2355.20;;;;;;5070394;28;20028;-62
2023/06/14 01:10:32;;;;;;;15.73;8.95;;;410.10;2355.20;;;;;;5070009;28;20017;-59
2023/06/14 01:13:21;;;;;;;12.27;7.78;;;410.10;2355.20;;;;;;5070729;28;20384;-58
2023/06/14 01:15:47;;;;;;;10.93;8.90;;;410.10;2355.20;;;;;;5070473;28;20470;-59
2023/06/14 01:18:19;;;;;;;10.13;8.55;;;410.10;2355.20;;;;;;5070050;28;20025;-59
2023/06/14 01:20:50;;;;;;;9.10;7.90;;;410.00;2355.20;;;;;;5070364;28;20387;-62
2023/06/14 01:23:20;;;;;;;10.75;8.63;;;410.00;2355.20;;;;;;5069775;28;20024;-61
2023/06/14 01:25:46;;;;;;;14.85;8.75;;;410.00;2355.20;;;;;;5070255;28;20016;-58
2023/06/14 01:28:16;;;;;;;16.45;9.73;;;409.90;2355.20;;;;;;5069693;28;20462;-59
2023/06/14 01:30:47;;;;;;;9.68;8.68;;;409.90;2355.20;;;;;;5070068;28;20029;-61
2023/06/14 01:33:21;;;;;;;10.90;9.20;;;409.90;2355.20;;;;;;5056348;28;20024;-58
2023/06/14 01:35:51;;;;;;;11.82;8.85;;;409.90;2355.20;;;;;;5069463;28;20034;-59
2023/06/14 01:38:23;;;;;;;10.98;8.20;;;409.90;2355.20;;;;;;5069836;28;20037;-58
2023/06/14 01:40:51;;;;;;;9.23;8.30;;;410.20;2355.20;;;;;;5069673;28;20021;-60
2023/06/14 01:43:18;;;;;;;10.95;8.40;;;409.80;2355.20;;;;;;5069870;28;20421;-58
2023/06/14 01:45:47;;;;;;;10.48;8.48;;;409.80;2355.20;;;;;;5069309;28;20033;-62
2023/06/14 01:48:13;;;;;;;9.57;7.72;;;409.90;2355.20;;;;;;5068716;28;20047;-62
2023/06/14 01:50:39;;;;;;;10.60;8.38;;;409.80;2355.20;;;;;;5069302;28;20458;-58
2023/06/14 01:53:08;;;;;;;10.70;9.23;;;409.80;2355.20;;;;;;5069541;28;20371;-61
2023/06/14 01:55:37;;;;;;;9.95;8.55;;;409.80;2355.20;;;;;;5069299;28;20028;-59
2023/06/14 01:58:04;;;;;;;11.48;8.88;;;409.80;2355.20;;;;;;5069364;28;20025;-59
2023/06/14 02:00:30;;;;;;;11.20;8.68;;;409.80;2355.20;;;;;;5069024;28;20026;-59
2023/06/14 02:02:56;;;;;;;10.57;8.40;;;409.80;2355.20;;;;;;5069908;28;20025;-62
2023/06/14 02:05:22;;;;;;;13.85;8.35;;;409.80;2355.20;;;;;;5068835;28;20411;-59
2023/06/14 02:07:48;;;;;;;12.35;7.80;;;409.80;2355.20;;;;;;5069284;28;20479;-61
2023/06/14 02:10:15;;;;;;;10.40;8.75;;;409.80;2355.20;;;;;;5069160;28;20027;-58
2023/06/14 02:12:41;;;;;;;15.77;8.52;;;409.70;2355.20;;;;;;5069068;28;20359;-59
2023/06/14 02:15:07;;;;;;;9.70;8.68;;;409.70;2355.20;;;;;;5069431;28;20028;-62
2023/06/14 02:17:33;;;;;;;10.68;8.57;;;409.70;2355.20;;;;;;5069014;28;20021;-59
2023/06/14 02:19:59;;;;;;;9.95;8.27;;;409.60;2355.20;;;;;;5069419;28;20020;-59
2023/06/14 02:22:25;;;;;;;10.68;9.13;;;409.60;2355.20;;;;;;5069204;28;20043;-59
2023/06/14 02:24:50;;;;;;;11.77;8.27;;;409.60;2355.20;;;;;;5068757;28;20433;-59
2023/06/14 02:27:16;;;;;;;12.50;8.48;;;409.60;2355.20;;;;;;5069368;28;20497;-61
2023/06/14 02:29:42;;;;;;;13.60;8.30;;;384.90;2329.60;;;;;;5068790;28;20029;-62
2023/06/14 02:32:08;;;;;;;11.20;8.15;;;409.60;2355.20;;;;;;5069122;28;20027;-60
2023/06/14 02:34:34;;;;;;;10.00;8.25;;;384.90;2329.60;;;;;;5068591;28;20540;-61
2023/06/14 02:37:02;;;;;;;10.70;8.30;;;384.90;2329.60;;;;;;5068800;28;20052;-60
2023/06/14 02:39:29;;;;;;;11.30;7.53;;;384.90;2329.60;;;;;;5069142;28;20066;-63
2023/06/14 02:41:54;;;;;;;9.27;7.05;;;384.90;2329.60;;;;;;5069114;28;20052;-62
2023/06/14 02:44:26;;;;;;;12.48;7.63;;;384.80;2329.60;;;;;;5068830;28;20490;-59
2023/06/14 02:46:52;;;;;;;10.48;7.60;;;384.80;2329.60;;;;;;5068717;28;20033;-63
2023/06/14 02:49:18;;;;;;;9.68;6.97;;;384.80;2329.60;;;;;;5068626;28;20029;-59
2023/06/14 02:51:43;;;;;;;11.45;7.57;;;384.90;2329.60;;;;;;5068981;28;20024;-62
2023/06/14 02:54:10;;;;;;;9.45;7.30;;;384.90;2329.60;;;;;;5068843;28;20497;-59
2023/06/14 02:56:35;;;;;;;11.43;7.38;;;409.60;2355.20;;;;;;5069093;28;20028;-63
2023/06/14 02:59:02;;;;;;;9.07;7.28;;;409.60;2355.20;;;;;;5069445;28;20446;-59
2023/06/14 03:01:33;;;;;;;8.70;6.22;;;409.60;2355.20;;;;;;5072908;28;20486;-58
2023/06/14 03:04:03;;;;;;;10.25;7.70;;;409.60;2355.20;;;;;;5072332;28;20040;-58
2023/06/14 03:06:33;;;;;;;9.82;7.25;;;409.70;2355.20;;;;;;5073038;28;20482;-60
2023/06/14 03:09:00;;;;;;;10.30;7.25;;;409.70;2355.20;;;;;;5060265;28;20044;-59
2023/06/14 03:11:29;;;;;;;11.15;7.68;;;409.80;2355.20;;;;;;5072811;28;20031;-61
2023/06/14 03:13:55;;;;;;;14.40;9.77;;;409.80;2355.20;;;;;;5072647;28;20052;-63
2023/06/14 03:16:23;;;;;;;11.70;9.63;;;409.70;2355.20;;;;;;5072131;28;20029;-59
2023/06/14 03:18:51;;;;;;;11.45;8.98;;;409.80;2355.20;;;;;;5072840;28;20029;-59
2023/06/14 03:21:20;;;;;;;8.10;7.07;;;410.00;2355.20;;;;;;5072615;28;20044;-59
2023/06/14 03:23:46;;;;;;;8.95;8.00;;;410.00;2355.20;;;;;;5072207;28;20013;-58
2023/06/14 03:26:17;;;;;;;12.40;8.00;;;410.10;2355.20;;;;;;5071821;28;20041;-59
2023/06/14 03:28:47;;;;;;;11.73;8.85;;;410.30;2355.20;;;;;;5071953;28;20024;-59
2023/06/14 03:31:13;;;;;;;12.70;10.77;;;410.50;2355.20;;;;;;5072154;28;20017;-62
2023/06/14 03:33:39;;;;;;;11.38;9.45;;;410.50;2355.20;;;;;;5072430;28;20025;-59
2023/06/14 03:36:06;;;;;;;11.30;8.45;;;435.20;2355.20;;;;;;5072230;28;20394;-61
2023/06/14 03:38:32;;;;;;;9.85;8.48;;;435.40;2355.20;;;;;;5071782;28;20032;-59
2023/06/14 03:40:58;;;;;;;13.68;10.43;;;435.50;2355.20;;;;;;5072444;28;20017;-58
2023/06/14 03:43:24;;;;;;;13.93;9.93;;;435.40;2355.20;;;;;;5072065;28;20020;-59
2023/06/14 03:45:50;;;;;;;11.90;9.18;;;435.40;2355.20;;;;;;5071814;28;20039;-59
2023/06/14 03:48:16;;;;;;;14.60;10.75;;;435.30;2355.20;;;;;;5071735;28;20037;-59
2023/06/14 03:50:42;;;;;;;13.55;9.75;;;435.30;2355.20;;;;;;5071762;28;20028;-59
2023/06/14 03:53:08;;;;;;;12.02;9.93;;;410.50;2355.20;;;;;;5071871;28;20108;-59
2023/06/14 03:55:34;;;;;;;26.73;9.38;;;410.40;2355.20;;;;;;5071473;28;20048;-61
2023/06/14 03:58:00;;;;;;;10.55;8.48;;;435.20;2355.20;;;;;;5071824;28;20378;-60
2023/06/14 04:00:26;;;;;;;14.88;8.48;;;435.40;2355.20;;;;;;5071543;28;20020;-59
2023/06/14 04:02:53;;;;;;;9.68;8.13;;;435.50;2355.20;;;;;;5071805;28;20027;-62
2023/06/14 04:05:19;;;;;;;9.88;8.10;;;435.70;2355.20;;;;;;5071299;28;20028;-58
2023/06/14 04:07:45;;;;;;;11.13;8.73;;;435.70;2355.20;;;;;;5071620;28;20021;-61
2023/06/14 04:10:15;;;;;;;10.38;8.10;;;435.80;2355.20;;;;;;5070973;28;20118;-59
2023/06/14 04:12:41;;;;;;;11.82;8.68;;;436.00;2355.20;;;;;;5071100;28;20024;-59
2023/06/14 04:15:08;;;;;;;15.45;8.55;;;460.80;2380.80;;;;;;5071529;28;20079;-62
2023/06/14 04:17:34;;;;;;;12.13;8.20;;;460.80;2380.80;;;;;;5071715;28;20097;-66
2023/06/14 04:20:03;;;;;;;16.33;8.88;;;461.00;2380.80;;;;;;5071652;28;20032;-61
2023/06/14 04:22:30;;;;;;;11.23;7.78;;;461.20;2380.80;;;;;;5071608;28;20032;-62
2023/06/14 04:24:59;;;;;;;9.23;8.27;;;461.40;2380.80;;;;;;5070547;28;20035;-63
2023/06/14 04:27:26;;;;;;;8.82;6.93;;;461.60;2380.80;;;;;;5070910;28;20021;-64
2023/06/14 04:29:59;;;;;;;10.80;8.35;;;461.60;2380.80;;;;;;5070698;28;20120;-62
2023/06/14 04:32:29;;;;;;;10.07;7.60;;;461.70;2380.80;;;;;;5071188;28;20060;-61
2023/06/14 04:34:55;;;;;;;12.65;7.10;;;486.60;2380.80;;;;;;5070623;28;20417;-63
2023/06/14 04:37:25;;;;;;;7.57;6.40;;;486.40;2380.80;;;;;;5070475;28;20048;-63
2023/06/14 04:39:52;;;;;;;8.82;6.90;;;486.60;2380.80;;;;;;5070606;28;20533;-62
2023/06/14 04:42:20;;;;;;;10.70;7.13;;;486.80;2380.80;;;;;;5070722;28;20398;-62
2023/06/14 04:44:47;;;;;;;11.32;7.10;;;486.80;2380.80;;;;;;5058060;28;20078;-62
2023/06/14 04:47:14;;;;;;;10.73;6.72;;;486.50;2380.80;;;;;;5070658;28;20078;-64
2023/06/14 04:49:40;;;;;;;10.52;7.00;;;486.50;2380.80;;;;;;5070312;28;20032;-61
2023/06/14 04:52:07;;;;;;;11.27;7.20;;;486.50;2380.80;;;;;;5070172;28;20494;-60
2023/06/14 04:54:33;;;;;;;8.85;7.03;;;486.60;2380.80;;;;;;5070643;28;20024;-62
2023/06/14 04:56:59;;;;;;;7.80;6.50;;;486.80;2380.80;;;;;;5070464;28;20017;-62
2023/06/14 04:59:25;;;;;;;13.23;7.70;;;;;;;;;;5070651;28;20104;-62
2023/06/14 05:01:52;;;;;;;10.48;7.40;;;512.40;2380.80;;;;;;5069438;28;20528;-62
2023/06/14 05:04:19;;;;;;;9.70;7.47;;;;;;;;;;5069734;28;20093;-60
2023/06/14 05:06:45;;;;;;;8.23;6.72;;;563.40;2432.00;;;;;;5070464;28;20137;-61
2023/06/14 05:09:12;;;;;;;11.35;6.93;;;;;;;;;;5069123;28;20055;-61
2023/06/14 05:11:37;;;;;;;11.18;7.70;;;589.70;2432.00;;;;;;5070113;28;20017;-61
2023/06/14 05:14:03;;;;;;;7.22;6.10;;;589.70;2432.00;;;;;;5067545;28;20115;-63
2023/06/14 05:16:29;;;;;;;9.02;6.38;;;614.50;2432.00;;;;;;5056464;28;20027;-61
2023/06/14 05:18:55;;;;;;;7.95;6.05;;;614.60;2406.40;;;;;;5070220;28;20029;-61
2023/06/14 05:21:21;;;;;;;7.05;5.93;;;614.70;2380.80;;;;;;5070105;28;20467;-61
2023/06/14 05:23:47;;;;;;;7.15;5.40;;;589.50;2406.40;;;;;;5069940;28;20032;-62
2023/06/14 05:26:13;;;;;;;6.85;5.57;;;589.70;2380.80;;;;;;5069906;28;20028;-61
2023/06/14 05:28:38;;;;;;;8.25;6.03;;;665.90;2201.60;;;;;;5070075;28;20135;-61
2023/06/14 05:31:04;;;;;;;7.47;6.18;;;717.40;2022.40;;;;;;5069710;28;20105;-62
2023/06/14 05:33:30;;;;;;;7.63;6.78;;;768.30;1868.80;;;;;;5070302;28;20037;-61
2023/06/14 05:35:55;;;;;;;13.57;6.32;;;819.40;1740.80;;;;;;5069971;28;20493;-61
2023/06/14 05:38:21;;;;;;;10.40;7.03;;;845.00;1612.80;;;;;;5069533;28;20039;-62
2023/06/14 05:40:48;;;;;;;8.82;7.57;;;845.20;1587.20;;;;;;5069463;28;20045;-62
2023/06/14 05:43:14;;;;;;;9.93;7.95;;;845.60;1536.00;;;;;;5069533;28;20031;-62
2023/06/14 05:45:40;;;;;;;12.68;8.55;;;896.00;1459.20;;;;;;5069563;28;20021;-62
2023/06/14 05:48:05;;;;;;;8.45;7.20;;;921.80;1408.00;;;;;;5070310;28;20040;-63
2023/06/14 05:50:31;;;;;;;7.90;7.10;;;871.20;1459.20;;;;;;5069704;28;20021;-62
2023/06/14 05:52:57;;;;;;;9.00;6.72;;;871.30;1433.60;;;;;;5069767;28;20360;-63
2023/06/14 05:55:23;;;;;;;12.07;6.45;;;896.80;1382.40;;;;;;5069591;28;20109;-63
2023/06/14 05:57:48;;;;;;;10.15;6.57;;;871.30;1433.60;;;;;;5069773;28;20017;-62
2023/06/14 06:00:15;;;;;;;8.77;6.82;;;845.70;1459.20;;;;;;5069551;28;20408;-62
2023/06/14 06:02:45;;;;;;;12.65;7.05;;;819.20;1561.60;;;;;;5069672;28;20032;-62
2023/06/14 06:05:15;;;;;;;8.40;7.30;;;819.60;1536.00;;;;;;5069325;28;20028;-62
2023/06/14 06:07:41;;;;;;;28.65;8.70;;;819.50;1536.00;;;;;;5068999;28;20059;-63
2023/06/14 06:10:07;;;;;;;9.10;7.22;;;845.50;1484.80;;;;;;5069627;28;20059;-63
2023/06/14 06:12:33;;;;;;;10.65;7.35;;;871.20;1433.60;;;;;;5069279;28;20016;-63
2023/06/14 06:14:59;;;;;;;10.65;8.02;;;896.80;1408.00;;;;;;5069774;28;20371;-63
2023/06/14 06:17:26;;;;;;;8.23;7.43;;;;;;;;;;5069182;28;20023;-62
2023/06/14 06:19:51;;;;;;;9.70;8.10;;;973.10;1331.20;;;;;;5069274;28;20027;-63
2023/06/14 06:22:17;;;;;;;11.70;7.13;;;1050.00;1203.20;;;;;;5069217;28;20382;-63
2023/06/14 06:24:43;;;;;;;8.73;7.00;;;1050.50;1152.00;;;;;;5069096;28;20055;-62
2023/06/14 06:27:09;;;;;;;12.48;7.15;;;973.60;1254.40;;;;;;5069068;28;20020;-62
2023/06/14 06:29:35;;;;;;;9.05;7.95;;;973.00;1280.00;;;;;;5068980;28;20756;-62
2023/06/14 06:32:01;;;;;;;10.25;8.65;;;973.50;1228.80;;;;;;5069201;28;20107;-64
2023/06/14 06:34:27;;;;;;;11.02;9.25;;;999.30;1203.20;;;;;;5068478;28;20486;-63
2023/06/14 06:36:53;;;;;;;14.55;9.32;;;1024.70;1152.00;;;;;;5068729;28;20052;-64
2023/06/14 06:39:19;;;;;;;11.23;9.50;;;998.70;1228.80;;;;;;5069078;28;20021;-62
2023/06/14 06:41:44;;;;;;;12.60;9.18;;;972.90;1254.40;;;;;;5068782;28;20119;-62
2023/06/14 06:44:10;;;;;;;10.48;7.75;;;870.80;1382.40;;;;;;5068867;28;20056;-62
2023/06/14 06:46:39;;;;;;;11.18;9.05;;;870.70;1408.00;;;;;;5069345;28;20543;-61
2023/06/14 06:49:06;;;;;;;14.63;9.07;;;845.10;1459.20;;;;;;5068783;28;20037;-62
2023/06/14 06:51:32;;;;;;;18.73;10.68;;;794.40;1536.00;;;;;;5068927;28;20021;-62
2023/06/14 06:53:58;;;;;;;15.38;10.77;;;870.60;1484.80;;;;;;5065634;28;20036;-62
2023/06/14 06:56:24;;;;;;;16.70;9.00;;;947.30;1305.60;;;;;;5067103;28;20028;-63
2023/06/14 06:58:50;;;;;;;18.23;9.82;;;947.50;1305.60;;;;;;5067293;28;20044;-63
2023/06/14 07:01:18;;;;;;;12.07;8.57;;;999.00;1228.80;;;;;;5067325;28;20029;-63
2023/06/14 07:03:44;;;;;;;8.88;7.32;;;1024.20;1203.20;;;;;;5067035;28;20120;-63
2023/06/14 07:06:10;;;;;;;18.52;8.38;;;948.00;1254.40;;;;;;5067333;28;20597;-63
2023/06/14 07:08:38;;;;;;;12.10;8.52;;;947.40;1280.00;;;;;;5066612;28;20528;-62
2023/06/14 07:11:04;;;;;;;19.13;8.07;;;972.80;1254.40;;;;;;5067200;28;20024;-63
2023/06/14 07:13:30;;;;;;;11.43;8.70;;;998.40;1254.40;;;;;;5067281;28;20051;-63
2023/06/14 07:15:58;;;;;;;13.75;8.63;;;1075.60;1126.40;;;;;;5067453;28;20579;-63
2023/06/14 07:18:24;;;;;;;11.45;8.68;;;1076.10;1100.80;;;;;;5066867;28;20023;-63
2023/06/14 07:20:50;;;;;;;10.43;8.07;;;1126.40;1100.80;;;;;;5066878;28;20028;-63
2023/06/14 07:23:16;;;;;;;9.77;8.75;;;1127.30;1075.20;;;;;;5067146;28;20358;-64
2023/06/14 07:25:42;;;;;;;9.25;8.45;;;1127.10;1075.20;;;;;;5066943;28;20429;-63
2023/06/14 07:28:07;;;;;;;11.57;7.63;;;1126.50;1075.20;;;;;;5067335;28;20494;-64
2023/06/14 07:30:33;;;;;;;9.80;8.82;;;1127.10;1075.20;;;;;;5067101;28;20524;-63
2023/06/14 07:32:59;;;;;;;10.80;9.57;;;1152.90;1024.00;;;;;;5066658;28;20029;-63
2023/06/14 07:35:24;;;;;;;12.88;9.63;;;1152.40;1024.00;;;;;;5066836;28;20052;-63
2023/06/14 07:37:50;;;;;;;12.73;10.05;;;1177.80;1024.00;;;;;;5066501;28;20064;-63
2023/06/14 07:40:16;;;;;;;8.80;7.95;;;1177.80;998.40;;;;;;5067356;28;20031;-64
2023/06/14 07:42:42;;;;;;;9.23;7.00;;;1126.70;1075.20;;;;;;5066321;28;20024;-63
2023/06/14 07:45:08;;;;;;;8.68;7.50;;;1126.60;1049.60;;;;;;5066783;28;20043;-62
2023/06/14 07:47:34;;;;;;;9.93;7.40;;;1152.60;998.40;;;;;;5069445;28;20024;-63
2023/06/14 07:49:59;;;;;;;7.70;6.90;;;1126.60;1049.60;;;;;;5070503;28;20044;-63
2023/06/14 07:52:25;;;;;;;8.52;7.57;;;1126.40;1049.60;;;;;;5070047;28;20025;-62
2023/06/14 07:54:51;;;;;;;7.07;6.47;;;1075.90;1049.60;;;;;;5070469;28;20489;-63
2023/06/14 07:57:19;;;;;;;11.38;6.97;;;1075.30;1075.20;;;;;;5070275;28;20474;-63
2023/06/14 07:59:46;;;;;;;7.85;7.05;;;998.70;1152.00;;;;;;5069659;28;20025;-62
2023/06/14 08:02:11;;;;;;;9.25;7.32;;;998.70;1152.00;;;;;;5069947;28;20031;-63
2023/06/14 08:04:38;;;;;;;9.63;7.50;;;973.20;1177.60;;;;;;5063819;28;20025;-62
2023/06/14 08:07:05;;;;;;;7.53;6.78;;;;;;;;;;5056646;28;20064;-62
2023/06/14 08:09:30;;;;;;;11.88;7.28;;;922.00;1305.60;;;;;;5055141;28;20536;-62
2023/06/14 08:11:57;;;;;;;9.23;6.75;;;;;;;;;;5060860;28;20033;-61
2023/06/14 08:14:23;;;;;;;7.65;6.75;;;896.20;1305.60;;;;;;5058770;28;20036;-61
2023/06/14 08:16:48;;;;;;;11.05;6.25;;;845.20;1408.00;;;;;;5065180;28;20048;-61
2023/06/14 08:19:16;;;;;;;7.38;5.38;;;845.40;1433.60;;;;;;5055780;28;20111;-61
2023/06/14 08:21:43;;;;;;;7.03;4.88;;;844.80;1433.60;;;;;;5059801;28;20024;-61
2023/06/14 08:24:12;;;;;;;7.05;5.15;;;768.90;1510.40;;;;;;5061299;28;20474;-62
2023/06/14 08:26:39;;;;;;;9.63;4.72;;;793.60;1561.60;;;;;;5057770;28;20419;-62
2023/06/14 08:29:06;;;;;;;7.32;4.90;;;794.10;1510.40;;;;;;5061101;28;20048;-61
2023/06/14 08:31:32;;;;;;;6.78;4.65;;;768.60;1561.60;;;;;;5061713;28;20366;-62
2023/06/14 08:33:58;;;;;;;6.22;4.20;;;793.60;1536.00;;;;;;5061926;28;20025;-60
2023/06/14 08:36:24;;;;;;;8.05;4.40;;;768.90;1484.80;;;;;;5057874;28;20052;-62
2023/06/14 08:38:50;;;;;;;7.03;4.15;;;794.00;1484.80;;;;;;5060575;28;20024;-61
2023/06/14 08:41:22;;;;;;;8.65;4.47;;;794.30;1484.80;;;;;;5056518;28;20017;-61
2023/06/14 08:43:47;;;;;;;4.97;4.43;;;768.60;1510.40;;;;;;5059252;28;20106;-61
2023/06/14 08:46:16;;;;;;;8.23;4.95;;;;;;;;;;5052878;28;20752;-62
2023/06/14 08:48:43;;;;;;;5.53;3.80;;;768.10;1536.00;;;;;;5054020;28;20043;-63
2023/06/14 08:51:11;;;;;;;7.03;3.90;;;768.00;1561.60;;;;;;5060906;28;20058;-61
2023/06/14 08:53:41;;;;;;;5.82;4.03;;;742.50;1638.40;;;;;;5060341;28;20029;-62
2023/06/14 08:56:13;;;;;;;4.97;3.85;;;742.80;1638.40;;;;;;5058107;28;20033;-62
2023/06/14 08:58:44;;;;;;;5.75;4.18;;;742.80;1664.00;;;;;;5057364;28;20035;-62
2023/06/14 09:01:16;;;;;;;8.13;3.85;;;742.40;1638.40;;;;;;5038687;28;20515;-62
2023/06/14 09:03:42;;;;;;;6.32;4.10;;;717.20;1638.40;;;;;;5056564;28;20044;-62
2023/06/14 09:06:13;;;;;;;5.30;3.50;;;716.90;1664.00;;;;;;5059758;28;20072;-62
2023/06/14 09:08:43;;;;;;;6.85;4.72;;;717.20;1638.40;;;;;;5053527;28;20039;-62
2023/06/14 09:11:12;;;;;;;5.18;3.90;;;717.70;1638.40;;;;;;5053039;28;20112;-62
2023/06/14 09:13:39;;;;;;;8.27;4.32;;;717.60;1612.80;;;;;;5061782;28;20040;-63
2023/06/14 09:16:05;;;;;;;5.68;4.10;;;717.60;1638.40;;;;;;5059450;28;20047;-63
2023/06/14 09:18:47;;;;;;;6.68;4.72;;;717.70;1664.00;;;;;;5056172;28;20025;-62
2023/06/14 09:21:14;;;;;;;6.13;3.72;;;717.70;1638.40;;;;;;5061429;28;20029;-63
2023/06/14 09:23:45;;;;;;;5.28;3.90;;;717.70;1638.40;;;;;;5056559;28;20071;-61
2023/06/14 09:26:13;;;;;;;6.80;4.25;;;717.70;1664.00;;;;;;5057084;28;20247;-61
2023/06/14 09:28:49;;;;;;;4.65;3.90;;;742.40;1689.60;;;;;;5060468;28;20398;-62
2023/06/14 09:31:20;;;;;;;5.20;4.20;;;717.30;1689.60;;;;;;5058221;28;20067;-61
2023/06/14 09:33:50;;;;;;;7.57;3.67;;;717.30;1689.60;;;;;;5058875;28;20082;-62
2023/06/14 09:36:23;;;;;;;7.53;3.92;;;717.60;1664.00;;;;;;5054503;28;20051;-62
2023/06/14 09:38:55;;;;;;;5.70;4.03;;;717.30;1689.60;;;;;;5059614;28;20024;-64
2023/06/14 09:41:34;;;;;;;6.80;4.40;;;717.20;1689.60;;;;;;5057903;28;20467;-62
2023/06/14 09:44:04;;;;;;;4.57;4.03;;;717.20;1715.20;;;;;;5055787;28;20024;-62
2023/06/14 09:46:31;;;;;;;4.78;4.28;;;717.10;1715.20;;;;;;5063377;28;20103;-61
2023/06/14 09:49:00;;;;;;;8.95;4.35;;;717.50;1689.60;;;;;;5059440;28;20080;-62
2023/06/14 09:51:27;;;;;;;5.78;4.13;;;717.50;1689.60;;;;;;5052787;28;20025;-63
2023/06/14 09:53:55;;;;;;;6.10;4.63;;;717.20;1715.20;;;;;;5051972;28;20033;-63
2023/06/14 09:56:44;;;;;;;5.82;4.13;;;717.20;1740.80;;;;;;5058407;28;20052;-63
2023/06/14 09:59:12;;;;;;;6.88;5.53;;;717.30;1715.20;;;;;;5058848;28;20490;-62
2023/06/14 10:01:42;;;;;;;5.57;4.00;;;716.80;1792.00;;;;;;5055566;28;20066;-61
2023/06/14 10:04:10;;;;;;;8.20;4.28;;;716.80;1740.80;;;;;;5054567;28;20119;-62
2023/06/14 10:06:46;;;;;;;7.95;4.28;;;717.40;1766.40;;;;;;5057975;28;20052;-61
2023/06/14 10:09:12;;;;;;;5.43;4.30;;;717.70;1664.00;;;;;;5056388;28;20678;-62
2023/06/14 10:11:43;;;;;;;5.85;4.15;;;742.70;1715.20;;;;;;5056164;28;20087;-62
2023/06/14 10:14:11;;;;;;;6.55;4.57;;;717.50;1664.00;;;;;;5033619;28;20403;-61
2023/06/14 10:17:08;;;;;;;5.30;4.18;;;717.40;1689.60;;;;;;5066238;28;20377;-62
2023/06/14 10:19:55;;;;;;;5.18;4.20;;;717.60;1715.20;;;;;;5068929;28;20024;-62
2023/06/14 10:22:31;;;;;;;7.90;4.50;;;742.60;1715.20;;;;;;5068778;28;20029;-64
2023/06/14 10:24:56;;;;;;;7.10;5.30;;;742.50;1715.20;;;;;;5069265;28;20107;-62
2023/06/14 10:27:25;;;;;;;10.10;4.60;;;717.60;1689.60;;;;;;5069473;28;20431;-62
2023/06/14 10:29:53;;;;;;;6.20;3.95;;;717.40;1689.60;;;;;;5068674;28;20548;-63
2023/06/14 10:32:20;;;;;;;6.40;4.13;;;742.40;1689.60;;;;;;5069402;28;20099;-62
2023/06/14 10:34:55;;;;;;;9.98;4.93;;;717.50;1664.00;;;;;;5068858;28;20031;-62
2023/06/14 10:37:20;;;;;;;6.93;6.22;;;717.10;1715.20;;;;;;5068533;28;20237;-62
2023/06/14 10:39:46;;;;;;;13.05;10.90;;;717.50;1715.20;;;;;;5069338;28;20025;-62
2023/06/14 10:42:13;;;;;;;7.35;4.35;;;742.60;1740.80;;;;;;5068921;28;20024;-62
2023/06/14 10:44:49;;;;;;;6.32;4.50;;;742.50;1689.60;;;;;;5068986;28;20060;-62
2023/06/14 10:47:32;;;;;;;6.70;4.45;;;717.20;1715.20;;;;;;5068842;28;20021;-62
2023/06/14 10:50:06;;;;;;;7.93;4.68;;;717.10;1689.60;;;;;;5069235;28;20394;-62
2023/06/14 10:52:39;;;;;;;6.50;4.47;;;717.20;1715.20;;;;;;5064005;28;20017;-62
2023/06/14 10:55:14;;;;;;;5.57;4.97;;;717.50;1715.20;;;;;;5061972;28;20421;-62
2023/06/14 10:57:45;;;;;;;5.45;4.50;;;692.10;1715.20;;;;;;5068855;28;20016;-62
2023/06/14 11:00:16;;;;;;;6.05;4.63;;;692.00;1715.20;;;;;;5068677;28;20082;-63
2023/06/14 11:03:09;;;;;;;5.47;4.78;;;692.10;1740.80;;;;;;5068667;28;20027;-63
2023/06/14 11:05:56;;;;;;;9.00;3.97;;;692.10;1715.20;;;;;;5068510;28;20501;-63
2023/06/14 11:09:00;;;;;;;6.20;4.05;;;691.50;1740.80;;;;;;5068315;28;20047;-63
2023/06/14 11:11:33;;;;;;;7.13;5.32;;;691.30;1740.80;;;;;;5006650;28;20068;-62
2023/06/14 11:14:00;;;;;;;7.85;4.85;;;666.50;1766.40;;;;;;5007304;28;20022;-62
2023/06/14 11:16:29;;;;;;;5.40;4.35;;;691.40;1766.40;;;;;;5030889;28;20073;-62
2023/06/14 11:18:55;;;;;;;7.22;4.72;;;691.40;1740.80;;;;;;5068343;28;20062;-63
2023/06/14 11:21:21;;;;;;;10.07;4.90;;;691.40;1766.40;;;;;;5071483;28;20028;-62
2023/06/14 11:23:54;;;;;;;8.25;5.00;;;691.80;1766.40;;;;;;5072427;28;20016;-62
2023/06/14 11:26:28;;;;;;;7.13;4.97;;;691.60;1740.80;;;;;;5072504;28;20031;-62
2023/06/14 11:28:58;;;;;;;5.93;4.68;;;691.80;1766.40;;;;;;5072105;28;20037;-63
2023/06/14 11:31:25;;;;;;;6.07;4.78;;;691.40;1792.00;;;;;;5071913;28;20486;-62
2023/06/14 11:33:53;;;;;;;16.15;6.18;;;691.40;1792.00;;;;;;5072206;28;20040;-62
2023/06/14 11:36:18;;;;;;;7.93;4.78;;;691.60;1792.00;;;;;;5071943;28;20051;-62
2023/06/14 11:38:44;;;;;;;5.13;4.00;;;691.60;1766.40;;;;;;5072079;28;20025;-61
2023/06/14 11:41:10;;;;;;;6.63;4.28;;;691.80;1766.40;;;;;;5072317;28;20017;-60
2023/06/14 11:43:37;;;;;;;5.78;4.13;;;691.40;1740.80;;;;;;5072023;28;20044;-62
2023/06/14 11:46:03;;;;;;;6.80;4.03;;;692.00;1740.80;;;;;;5071912;28;20470;-62
2023/06/14 11:48:42;;;;;;;4.90;3.92;;;691.90;1740.80;;;;;;5072309;28;20040;-62
2023/06/14 11:51:08;;;;;;;7.93;5.10;;;691.90;1792.00;;;;;;5059768;28;20059;-61
2023/06/14 11:53:34;;;;;;;6.38;4.40;;;716.80;1792.00;;;;;;5071721;28;20513;-62
2023/06/14 11:56:00;;;;;;;5.25;4.00;;;716.80;1740.80;;;;;;5072157;28;20709;-62
2023/06/14 11:58:27;;;;;;;7.78;4.90;;;692.10;1715.20;;;;;;5071905;28;20108;-61
2023/06/14 12:00:54;;;;;;;7.85;4.78;;;691.80;1740.80;;;;;;5071788;28;20021;-62
2023/06/14 12:03:28;;;;;;;5.07;4.07;;;716.80;1766.40;;;;;;5071623;28;20100;-62
2023/06/14 12:06:10;;;;;;;8.57;5.22;;;692.10;1715.20;;;;;;5071422;28;20059;-62
2023/06/14 12:08:39;;;;;;;8.68;4.30;;;691.80;1740.80;;;;;;5071163;28;20028;-62
2023/06/14 12:11:13;;;;;;;9.98;4.80;;;691.90;1740.80;;;;;;5072112;28;20024;-62
2023/06/14 12:13:42;;;;;;;9.45;4.88;;;691.80;1740.80;;;;;;5071268;28;20040;-62
2023/06/14 12:16:09;;;;;;;6.03;4.80;;;691.60;1740.80;;;;;;5072003;28;20048;-61
2023/06/14 12:18:36;;;;;;;5.43;4.53;;;692.10;1715.20;;;;;;5071109;28;20081;-62
2023/06/14 12:21:06;;;;;;;9.05;4.60;;;692.10;1740.80;;;;;;5071561;28;20021;-62